Time;durP1;ratioP1;P1;durP2;ratioP2;P2;SDS_P1;SDS_P2;PMS_P1;PMS_P2;Temp;Humidity;BMP_temperature;BMP_pressure;BME280_temperature;BME280_humidity;BME280_pressure;Samples;Min_cycle;Max_cycle;Signal;HPM_P1;HPM_P2
2023/05/10 00:00:05;;;;;;;16.27;10.73;;;;;;;;;;5092714;28;20482;-60
2023/05/10 00:02:40;;;;;;;16.13;10.32;;;;;;;;;;5092826;28;20506;-60
2023/05/10 00:05:07;;;;;;;16.55;11.10;;;;;;;;;;5092795;28;20052;-61
2023/05/10 00:07:35;;;;;;;17.15;11.25;;;;;;;;;;5092856;28;20547;-60
2023/05/10 00:10:02;;;;;;;14.98;10.30;;;;;;;;;;5092801;28;20063;-60
2023/05/10 00:12:30;;;;;;;17.35;11.55;;;;;;;;;;5093114;28;20119;-60
2023/05/10 00:14:57;;;;;;;16.15;11.15;;;;;;;;;;5092650;28;20036;-60
2023/05/10 00:17:24;;;;;;;16.20;10.50;;;;;;;;;;5092908;28;20032;-61
2023/05/10 00:19:52;;;;;;;13.35;10.60;;;;;;;;;;5092694;28;20036;-60
2023/05/10 00:22:19;;;;;;;14.43;10.73;;;;;;;;;;5092694;28;20048;-60
2023/05/10 00:24:47;;;;;;;14.98;10.75;;;;;;;;;;5092695;28;20032;-60
2023/05/10 00:27:15;;;;;;;15.80;11.32;;;;;;;;;;5092746;28;20036;-60
2023/05/10 00:29:42;;;;;;;15.35;11.00;;;;;;;;;;5092417;28;20036;-60
2023/05/10 00:32:10;;;;;;;17.17;11.57;;;;;;;;;;5092703;28;20048;-60
2023/05/10 00:34:37;;;;;;;14.25;10.90;;;;;;;;;;5074412;28;20039;-60
2023/05/10 00:37:05;;;;;;;15.50;10.98;;;;;;;;;;5092604;28;20040;-61
2023/05/10 00:39:33;;;;;;;13.85;10.75;;;;;;;;;;5074460;28;20486;-61
2023/05/10 00:42:00;;;;;;;13.40;10.18;;;;;;;;;;5074502;28;20505;-60
2023/05/10 00:44:28;;;;;;;13.27;10.35;;;;;;;;;;5074495;28;20044;-60
2023/05/10 00:46:56;;;;;;;14.07;10.52;;;;;;;;;;5092826;28;20052;-60
2023/05/10 00:49:23;;;;;;;15.10;9.90;;;;;;;;;;5074470;28;20044;-61
2023/05/10 00:51:51;;;;;;;14.98;10.13;;;;;;;;;;5074413;28;20094;-60
2023/05/10 00:54:18;;;;;;;13.40;9.55;;;;;;;;;;5074354;28;20040;-60
2023/05/10 00:56:48;;;;;;;19.55;9.93;;;;;;;;;;5092552;28;20042;-61
2023/05/10 00:59:17;;;;;;;14.50;10.40;;;;;;;;;;5074339;28;20044;-61
2023/05/10 01:01:48;;;;;;;13.77;10.50;;;;;;;;;;5074366;28;20047;-61
2023/05/10 01:04:16;;;;;;;15.65;10.65;;;;;;;;;;5092197;28;20048;-61
2023/05/10 01:06:44;;;;;;;18.08;11.32;;;;;;;;;;5074158;28;20097;-61
2023/05/10 01:09:11;;;;;;;16.35;9.90;;;;;;;;;;5074043;28;20493;-61
2023/05/10 01:11:40;;;;;;;13.20;10.75;;;;;;;;;;5074601;28;20047;-61
2023/05/10 01:14:08;;;;;;;14.27;11.07;;;;;;;;;;5094936;28;20410;-61
2023/05/10 01:16:37;;;;;;;14.02;10.02;;;;;;;;;;5078026;28;20094;-61
2023/05/10 01:19:09;;;;;;;13.40;10.52;;;;;;;;;;5077788;28;20567;-61
2023/05/10 01:21:41;;;;;;;13.57;10.38;;;;;;;;;;5096003;28;20028;-61
2023/05/10 01:24:17;;;;;;;14.23;9.90;;;;;;;;;;5096103;28;20044;-61
2023/05/10 01:27:04;;;;;;;17.23;10.40;;;;;;;;;;5094784;28;20040;-61
2023/05/10 01:29:31;;;;;;;13.98;10.25;;;;;;;;;;5077706;28;20048;-61
2023/05/10 01:31:59;;;;;;;16.27;10.60;;;;;;;;;;5077705;28;20040;-61
2023/05/10 01:34:38;;;;;;;15.05;11.00;;;;;;;;;;5077526;28;20040;-61
2023/05/10 01:37:10;;;;;;;15.13;11.32;;;;;;;;;;5077527;28;20048;-61
2023/05/10 01:39:37;;;;;;;16.33;10.95;;;;;;;;;;5077693;28;20097;-61
2023/05/10 01:42:05;;;;;;;15.90;10.95;;;;;;;;;;5095711;28;20036;-61
2023/05/10 01:44:48;;;;;;;14.65;10.75;;;;;;;;;;5077523;28;20126;-62
2023/05/10 01:47:20;;;;;;;14.48;10.88;;;;;;;;;;5095681;28;20068;-62
2023/05/10 01:49:50;;;;;;;13.55;10.55;;;;;;;;;;5095555;28;20068;-61
2023/05/10 01:52:26;;;;;;;15.32;10.80;;;;;;;;;;5077596;28;20090;-62
2023/05/10 01:55:02;;;;;;;15.50;10.98;;;;;;;;;;5095527;28;20036;-61
2023/05/10 01:57:33;;;;;;;15.18;10.43;;;;;;;;;;5077306;28;20074;-61
2023/05/10 02:00:03;;;;;;;15.93;11.07;;;;;;;;;;5077182;28;20086;-61
2023/05/10 02:02:42;;;;;;;15.65;11.07;;;;;;;;;;5095290;28;20405;-62
2023/05/10 02:05:12;;;;;;;18.15;11.80;;;;;;;;;;5077084;28;20059;-61
2023/05/10 02:07:39;;;;;;;15.90;12.07;;;;;;;;;;5077057;28;20060;-61
2023/05/10 02:10:08;;;;;;;16.02;11.68;;;;;;;;;;5076964;28;20509;-62
2023/05/10 02:12:36;;;;;;;16.52;13.18;;;;;;;;;;5076924;28;20418;-61
2023/05/10 02:15:06;;;;;;;20.60;13.55;;;;;;;;;;5076889;28;20091;-61
2023/05/10 02:17:35;;;;;;;17.70;13.23;;;;;;;;;;5076833;28;20553;-61
2023/05/10 02:20:04;;;;;;;18.67;12.68;;;;;;;;;;5094974;28;20119;-61
2023/05/10 02:22:32;;;;;;;19.25;13.25;;;;;;;;;;5094777;28;20074;-61
2023/05/10 02:25:00;;;;;;;20.80;13.63;;;;;;;;;;5076850;28;20551;-61
2023/05/10 02:27:28;;;;;;;19.77;13.80;;;;;;;;;;5094806;28;20063;-61
2023/05/10 02:29:56;;;;;;;17.67;13.98;;;;;;;;;;5093475;28;20089;-61
2023/05/10 02:32:26;;;;;;;22.73;14.75;;;;;;;;;;5076618;28;20087;-61
2023/05/10 02:34:55;;;;;;;21.10;14.25;;;;;;;;;;5076398;28;20046;-62
2023/05/10 02:37:23;;;;;;;19.45;14.70;;;;;;;;;;5076414;28;20387;-61
2023/05/10 02:39:51;;;;;;;21.63;15.07;;;;;;;;;;5094623;28;20410;-62
2023/05/10 02:42:20;;;;;;;21.33;15.07;;;;;;;;;;5076482;28;20044;-61
2023/05/10 02:44:49;;;;;;;20.38;14.25;;;;;;;;;;5094659;28;20398;-61
2023/05/10 02:47:16;;;;;;;24.77;15.18;;;;;;;;;;5076445;28;20508;-62
2023/05/10 02:49:44;;;;;;;20.83;14.38;;;;;;;;;;5092981;28;20555;-61
2023/05/10 02:52:16;;;;;;;26.77;15.05;;;;;;;;;;5076192;28;20040;-61
2023/05/10 02:54:50;;;;;;;27.42;15.70;;;;;;;;;;5076188;28;20043;-61
2023/05/10 02:57:19;;;;;;;21.40;13.60;;;;;;;;;;5076133;28;20559;-61
2023/05/10 02:59:46;;;;;;;20.77;13.90;;;;;;;;;;5094313;28;20105;-61
2023/05/10 03:02:14;;;;;;;21.10;14.38;;;;;;;;;;5076130;28;20131;-61
2023/05/10 03:04:41;;;;;;;22.25;14.98;;;;;;;;;;5075352;28;20044;-61
2023/05/10 03:07:09;;;;;;;19.80;14.20;;;;;;;;;;5092961;28;20126;-61
2023/05/10 03:09:37;;;;;;;19.55;12.65;;;;;;;;;;5075872;28;20520;-61
2023/05/10 03:12:08;;;;;;;18.27;13.90;;;;;;;;;;5092469;28;20040;-61
2023/05/10 03:14:54;;;;;;;18.95;12.80;;;;;;;;;;5092431;28;20044;-62
2023/05/10 03:17:37;;;;;;;20.00;13.43;;;;;;;;;;5064505;28;20080;-62
2023/05/10 03:20:07;;;;;;;20.63;12.70;;;;;;;;;;5072276;28;20083;-62
2023/05/10 03:22:44;;;;;;;17.17;12.30;;;;;;;;;;5072146;28;20036;-62
2023/05/10 03:25:12;;;;;;;20.45;13.40;;;;;;;;;;5072155;28;20076;-62
2023/05/10 03:27:42;;;;;;;17.85;12.25;;;;;;;;;;5072097;28;20477;-62
2023/05/10 03:30:12;;;;;;;18.27;13.05;;;;;;;;;;5039194;28;20051;-62
2023/05/10 03:32:40;;;;;;;17.90;12.40;;;;;;;;;;5072047;28;20044;-62
2023/05/10 03:35:08;;;;;;;17.77;12.00;;;;;;;;;;5072812;28;20033;-62
2023/05/10 03:37:37;;;;;;;21.23;13.25;;;;;;;;;;5071890;28;20098;-62
2023/05/10 03:40:05;;;;;;;18.15;13.00;;;;;;;;;;5071828;28;20068;-62
2023/05/10 03:42:35;;;;;;;19.15;13.07;;;;;;;;;;5071479;28;20135;-62
2023/05/10 03:45:03;;;;;;;17.63;12.88;;;;;;;;;;5073020;28;20486;-62
2023/05/10 03:47:31;;;;;;;15.77;11.95;;;;;;;;;;5071782;28;20041;-62
2023/05/10 03:49:59;;;;;;;16.65;12.52;;;;;;;;;;5071303;28;20135;-62
2023/05/10 03:52:27;;;;;;;20.60;12.63;;;;;;;;;;5071705;28;20098;-62
2023/05/10 03:54:55;;;;;;;17.38;11.30;;;;;;;;;;5038750;28;20406;-62
2023/05/10 03:57:23;;;;;;;18.25;12.25;;;;;;;;;;5071536;28;20044;-62
2023/05/10 03:59:51;;;;;;;18.92;12.52;;;;;;;;;;5071632;28;20044;-62
2023/05/10 04:02:18;;;;;;;17.98;12.10;;;;;;;;;;5055156;28;20109;-62
2023/05/10 04:04:46;;;;;;;17.55;12.27;;;;;;;;;;5072603;28;20036;-63
2023/05/10 04:07:13;;;;;;;16.58;11.60;;;;;;;;;;5071552;28;20139;-62
2023/05/10 04:09:41;;;;;;;16.27;11.35;;;;;;;;;;5071547;28;20149;-62
2023/05/10 04:12:08;;;;;;;17.05;11.52;;;;;;;;;;5071236;28;20071;-62
2023/05/10 04:14:37;;;;;;;16.98;11.57;;;;;;;;;;5054723;28;20051;-62
2023/05/10 04:17:05;;;;;;;19.52;11.32;;;;;;;;;;5071474;28;20051;-62
2023/05/10 04:19:33;;;;;;;16.70;11.48;;;;;;;;;;5072670;28;20039;-62
2023/05/10 04:22:00;;;;;;;16.08;11.57;;;;;;;;;;5072836;28;20045;-62
2023/05/10 04:24:27;;;;;;;22.10;12.63;;;;;;;;;;5071461;28;20056;-62
2023/05/10 04:26:55;;;;;;;21.77;12.25;;;;;;;;;;5072693;28;20060;-61
2023/05/10 04:29:24;;;;;;;19.67;13.45;;;;;;;;;;5072799;28;20420;-62
2023/05/10 04:31:51;;;;;;;22.77;13.00;;;;;;;;;;5072153;28;20433;-62
2023/05/10 04:34:20;;;;;;;21.00;14.13;;;;;;;;;;5072588;28;20032;-62
2023/05/10 04:36:48;;;;;;;21.42;14.60;;;;;;;;;;5072476;28;20044;-62
2023/05/10 04:39:15;;;;;;;23.55;15.75;;;;;;;;;;5072493;28;20055;-62
2023/05/10 04:41:43;;;;;;;23.08;15.60;;;;;;;;;;5071435;28;20625;-62
2023/05/10 04:44:10;;;;;;;27.23;17.30;;;;;;;;;;5072386;28;20101;-62
2023/05/10 04:46:38;;;;;;;23.00;15.88;;;;;;;;;;5072898;28;20044;-64
2023/05/10 04:49:05;;;;;;;26.45;18.20;;;;;;;;;;5075270;28;20049;-61
2023/05/10 04:51:33;;;;;;;21.20;16.58;;;;;;;;;;5076127;28;20041;-63
2023/05/10 04:54:00;;;;;;;19.95;15.35;;;;;;;;;;5076332;28;20052;-63
2023/05/10 04:56:33;;;;;;;22.83;15.50;;;;;;;;;;5075906;28;20082;-63
2023/05/10 04:59:01;;;;;;;20.40;14.93;;;;;;;;;;5076416;28;20089;-60
2023/05/10 05:01:29;;;;;;;19.65;14.57;;;;;;;;;;5075171;28;20486;-62
2023/05/10 05:03:57;;;;;;;20.38;14.98;;;;;;;;;;5058749;28;20036;-61
2023/05/10 05:06:26;;;;;;;20.42;15.15;;;;;;;;;;5076318;28;20098;-61
2023/05/10 05:08:54;;;;;;;20.23;15.07;;;;;;;;;;5058387;28;20041;-61
2023/05/10 05:11:22;;;;;;;24.45;15.88;;;;;;;;;;5076219;28;20076;-61
2023/05/10 05:13:49;;;;;;;18.20;13.85;;;;;;;;;;5058420;28;20451;-61
2023/05/10 05:16:17;;;;;;;18.63;14.27;;;;;;;;;;5075997;28;20161;-61
2023/05/10 05:18:44;;;;;;;18.70;13.98;;;;;;;;;;5075893;28;20044;-61
2023/05/10 05:21:15;;;;;;;20.33;15.43;;;;;;;;;;5076157;28;20040;-61
2023/05/10 05:23:43;;;;;;;20.85;14.57;;;;;;;;;;5076069;28;20097;-61
2023/05/10 05:26:11;;;;;;;21.15;14.80;;;;;;;;;;5076039;28;20041;-61
2023/05/10 05:28:39;;;;;;;20.08;15.30;;;;;;;;;;5075797;28;20072;-61
2023/05/10 05:31:07;;;;;;;21.15;13.70;;;;;;;;;;5075514;28;20441;-61
2023/05/10 05:33:35;;;;;;;18.67;13.63;;;;;;;;;;5075586;28;20483;-61
2023/05/10 05:36:05;;;;;;;22.35;14.15;;;;;;;;;;5075382;28;20068;-61
2023/05/10 05:38:33;;;;;;;21.67;14.52;;;;;;;;;;5075516;28;20044;-61
2023/05/10 05:41:01;;;;;;;20.05;15.68;;;;;;;;;;5075517;28;20490;-61
2023/05/10 05:43:28;;;;;;;24.48;16.60;;;;;;;;;;5075497;28;20059;-61
2023/05/10 05:45:57;;;;;;;25.13;17.20;;;;;;;;;;5075795;28;20086;-61
2023/05/10 05:48:25;;;;;;;21.08;16.42;;;;;;;;;;5075492;28;20049;-60
2023/05/10 05:50:59;;;;;;;26.55;16.08;;;;;;;;;;5075270;28;20079;-61
2023/05/10 05:53:26;;;;;;;21.42;14.82;;;;;;;;;;5075256;28;20051;-61
2023/05/10 05:55:58;;;;;;;20.30;15.07;;;;;;;;;;5075392;28;20036;-62
2023/05/10 05:58:26;;;;;;;15.45;11.55;;;;;;;;;;5074843;28;20037;-61
2023/05/10 06:00:54;;;;;;;12.80;10.90;;;;;;;;;;5075080;28;20403;-62
2023/05/10 06:03:21;;;;;;;15.60;12.10;;;;;;;;;;5073877;28;20486;-62
2023/05/10 06:05:49;;;;;;;13.60;11.38;;;;;;;;;;5074867;28;20106;-61
2023/05/10 06:08:17;;;;;;;15.70;11.68;;;;;;;;;;5073877;28;20475;-61
2023/05/10 06:10:45;;;;;;;17.45;11.00;;;;;;;;;;5074927;28;20049;-61
2023/05/10 06:13:12;;;;;;;15.13;10.93;;;;;;;;;;5075061;28;20048;-61
2023/05/10 06:15:40;;;;;;;13.75;12.05;;;;;;;;;;5074829;28;20521;-61
2023/05/10 06:18:07;;;;;;;16.02;12.38;;;;;;;;;;5074771;28;20041;-61
2023/05/10 06:20:35;;;;;;;16.00;11.30;;;;;;;;;;5075095;28;20486;-60
2023/05/10 06:23:03;;;;;;;15.75;11.43;;;;;;;;;;5074750;28;20068;-61
2023/05/10 06:25:30;;;;;;;15.73;11.65;;;;;;;;;;5074683;28;20553;-62
2023/05/10 06:27:58;;;;;;;13.20;10.75;;;;;;;;;;5074682;28;20051;-61
2023/05/10 06:30:28;;;;;;;14.05;11.07;;;;;;;;;;5074572;28;20094;-61
2023/05/10 06:32:56;;;;;;;13.75;11.00;;;;;;;;;;5074503;28;20406;-62
2023/05/10 06:35:24;;;;;;;12.68;10.23;;;;;;;;;;5074584;28;20081;-61
2023/05/10 06:37:52;;;;;;;13.90;10.57;;;;;;;;;;5074547;28;20052;-62
2023/05/10 06:40:19;;;;;;;12.88;10.23;;;;;;;;;;5074405;28;20044;-61
2023/05/10 06:42:47;;;;;;;13.85;11.13;;;;;;;;;;5074502;28;20391;-62
2023/05/10 06:45:15;;;;;;;14.23;10.65;;;;;;;;;;5074488;28;20071;-61
2023/05/10 06:47:43;;;;;;;11.52;10.32;;;;;;;;;;5074229;28;20040;-62
2023/05/10 06:50:11;;;;;;;12.88;9.73;;;;;;;;;;5074179;28;20040;-61
2023/05/10 06:52:39;;;;;;;8.93;8.02;;;;;;;;;;5074436;28;20067;-62
2023/05/10 06:55:06;;;;;;;10.82;8.35;;;;;;;;;;5074136;28;20040;-61
2023/05/10 06:57:34;;;;;;;11.48;8.50;;;;;;;;;;5074014;28;20094;-62
2023/05/10 07:00:03;;;;;;;9.93;8.32;;;;;;;;;;5074020;28;20449;-61
2023/05/10 07:02:31;;;;;;;9.40;7.85;;;;;;;;;;5074026;28;20037;-62
2023/05/10 07:04:59;;;;;;;10.48;8.43;;;;;;;;;;5073750;28;20136;-62
2023/05/10 07:07:29;;;;;;;8.50;7.63;;;;;;;;;;5073894;28;20052;-61
2023/05/10 07:09:57;;;;;;;9.43;7.60;;;;;;;;;;5073017;28;20394;-62
2023/05/10 07:12:25;;;;;;;8.07;7.28;;;;;;;;;;5073555;28;20056;-61
2023/05/10 07:14:53;;;;;;;10.27;6.97;;;;;;;;;;5073790;28;20047;-61
2023/05/10 07:17:20;;;;;;;9.50;6.68;;;;;;;;;;5073757;28;20040;-61
2023/05/10 07:19:48;;;;;;;10.07;7.22;;;;;;;;;;5074125;28;20048;-61
2023/05/10 07:22:16;;;;;;;11.10;7.35;;;;;;;;;;5073796;28;20097;-61
2023/05/10 07:24:45;;;;;;;8.02;7.03;;;;;;;;;;5073576;28;20072;-62
2023/05/10 07:27:12;;;;;;;6.93;5.90;;;;;;;;;;5073601;28;20048;-62
2023/05/10 07:29:40;;;;;;;7.22;6.38;;;;;;;;;;5072561;28;20044;-62
2023/05/10 07:32:07;;;;;;;9.15;6.60;;;;;;;;;;5073435;28;20430;-62
2023/05/10 07:34:35;;;;;;;7.75;5.57;;;;;;;;;;5073410;28;20045;-60
2023/05/10 07:37:03;;;;;;;6.80;6.07;;;;;;;;;;5073408;28;20102;-62
2023/05/10 07:39:30;;;;;;;6.40;5.75;;;;;;;;;;5073248;28;20098;-61
2023/05/10 07:41:57;;;;;;;7.07;6.10;;;;;;;;;;5073269;28;20067;-61
2023/05/10 07:44:25;;;;;;;8.35;6.25;;;;;;;;;;5073202;28;20047;-62
2023/05/10 07:46:52;;;;;;;7.70;5.70;;;;;;;;;;5073194;28;20087;-62
2023/05/10 07:49:20;;;;;;;10.40;5.90;;;;;;;;;;5073064;28;20052;-62
2023/05/10 07:51:47;;;;;;;8.15;5.50;;;;;;;;;;5073140;28;20040;-61
2023/05/10 07:54:15;;;;;;;6.25;5.55;;;;;;;;;;5073254;28;20036;-61
2023/05/10 07:56:46;;;;;;;7.45;5.55;;;;;;;;;;5072956;28;20040;-62
2023/05/10 07:59:18;;;;;;;8.73;6.10;;;;;;;;;;5072901;28;20045;-62
2023/05/10 08:01:45;;;;;;;12.35;5.72;;;;;;;;;;5072893;28;20047;-62
2023/05/10 08:04:13;;;;;;;5.80;3.92;;;;;;;;;;5055161;28;20079;-63
2023/05/10 08:06:40;;;;;;;8.05;4.32;;;;;;;;;;5072861;28;20402;-62
2023/05/10 08:09:08;;;;;;;8.07;4.40;;;;;;;;;;5072663;28;20399;-63
2023/05/10 08:11:36;;;;;;;7.25;4.50;;;;;;;;;;5072629;28;20398;-61
2023/05/10 08:14:03;;;;;;;6.75;4.22;;;;;;;;;;5072680;28;20440;-62
2023/05/10 08:16:32;;;;;;;8.15;4.07;;;;;;;;;;5072542;28;20044;-62
2023/05/10 08:18:59;;;;;;;5.80;4.35;;;;;;;;;;5072699;28;20047;-61
2023/05/10 08:21:27;;;;;;;5.50;3.72;;;;;;;;;;5072366;28;20098;-61
2023/05/10 08:23:54;;;;;;;4.85;3.30;;;;;;;;;;5072508;28;20490;-62
2023/05/10 08:26:22;;;;;;;5.88;3.17;;;;;;;;;;5072887;28;20054;-62
2023/05/10 08:28:49;;;;;;;6.65;3.72;;;;;;;;;;5072621;28;20037;-63
2023/05/10 08:31:17;;;;;;;6.18;3.17;;;;;;;;;;5071215;28;20055;-63
2023/05/10 08:33:45;;;;;;;5.72;3.45;;;;;;;;;;5054461;28;20136;-62
2023/05/10 08:36:19;;;;;;;5.82;3.05;;;;;;;;;;5072485;28;20468;-62
2023/05/10 08:38:46;;;;;;;7.20;3.33;;;;;;;;;;5055769;28;20400;-61
2023/05/10 08:41:16;;;;;;;3.17;2.40;;;;;;;;;;5072353;28;20060;-63
2023/05/10 08:43:45;;;;;;;7.30;3.63;;;;;;;;;;5071154;28;20475;-61
2023/05/10 08:46:19;;;;;;;6.22;4.20;;;;;;;;;;5072266;28;20033;-61
2023/05/10 08:48:48;;;;;;;4.65;2.58;;;;;;;;;;5072400;28;20045;-61
2023/05/10 08:51:17;;;;;;;4.80;3.15;;;;;;;;;;5070833;28;20463;-61
2023/05/10 08:53:45;;;;;;;7.82;3.47;;;;;;;;;;5072310;28;20040;-62
2023/05/10 08:56:13;;;;;;;6.75;2.72;;;;;;;;;;5072260;28;20072;-62
2023/05/10 08:58:40;;;;;;;5.18;2.83;;;;;;;;;;5070942;28;20127;-61
2023/05/10 09:01:08;;;;;;;7.82;3.28;;;;;;;;;;5072363;28;20395;-62
2023/05/10 09:03:36;;;;;;;4.32;3.20;;;;;;;;;;5072202;28;20033;-62
2023/05/10 09:06:03;;;;;;;4.85;2.72;;;;;;;;;;5072068;28;20095;-62
2023/05/10 09:08:31;;;;;;;5.10;2.70;;;;;;;;;;5072506;28;20056;-61
2023/05/10 09:11:01;;;;;;;5.15;3.15;;;;;;;;;;5072119;28;20120;-62
2023/05/10 09:13:29;;;;;;;5.47;3.25;;;;;;;;;;5071901;28;20355;-62
2023/05/10 09:15:56;;;;;;;4.25;2.75;;;;;;;;;;5072053;28;20040;-62
2023/05/10 09:18:30;;;;;;;3.67;3.13;;;;;;;;;;5072080;28;20071;-63
2023/05/10 09:20:58;;;;;;;5.30;3.33;;;;;;;;;;5072310;28;20438;-63
2023/05/10 09:23:31;;;;;;;6.28;3.20;;;;;;;;;;5072013;28;20037;-63
2023/05/10 09:26:04;;;;;;;4.60;3.15;;;;;;;;;;5071873;28;20040;-62
2023/05/10 09:28:32;;;;;;;4.53;3.00;;;;;;;;;;5071943;28;20045;-62
2023/05/10 09:30:59;;;;;;;4.00;3.03;;;;;;;;;;5072139;28;20391;-62
2023/05/10 09:33:27;;;;;;;8.02;3.53;;;;;;;;;;5073471;28;20044;-63
2023/05/10 09:35:54;;;;;;;4.43;2.92;;;;;;;;;;5075620;28;20560;-63
2023/05/10 09:38:22;;;;;;;5.13;3.25;;;;;;;;;;5075531;28;20119;-62
2023/05/10 09:40:54;;;;;;;5.13;3.60;;;;;;;;;;5074120;28;20425;-63
2023/05/10 09:43:21;;;;;;;5.85;3.85;;;;;;;;;;5075661;28;20071;-63
2023/05/10 09:45:50;;;;;;;6.57;3.80;;;;;;;;;;5075346;28;20041;-63
2023/05/10 09:48:17;;;;;;;4.90;3.60;;;;;;;;;;5057823;28;20067;-62
2023/05/10 09:50:45;;;;;;;6.20;3.47;;;;;;;;;;5075357;28;20135;-61
2023/05/10 09:53:16;;;;;;;5.50;3.50;;;;;;;;;;5075100;28;20060;-61
2023/05/10 09:55:45;;;;;;;6.63;3.50;;;;;;;;;;5075281;28;20055;-61
2023/05/10 09:58:13;;;;;;;5.80;3.85;;;;;;;;;;5075198;28;20455;-61
2023/05/10 10:00:47;;;;;;;6.97;4.15;;;;;;;;;;5073851;28;20044;-61
2023/05/10 10:03:16;;;;;;;5.10;4.00;;;;;;;;;;5075579;28;20040;-62
2023/05/10 10:05:44;;;;;;;4.00;3.42;;;;;;;;;;5075082;28;20060;-61
2023/05/10 10:08:12;;;;;;;4.97;3.45;;;;;;;;;;5073932;28;20036;-61
2023/05/10 10:10:40;;;;;;;6.28;3.50;;;;;;;;;;5075073;28;20045;-62
2023/05/10 10:13:09;;;;;;;4.85;3.20;;;;;;;;;;5075056;28;20079;-62
2023/05/10 10:15:36;;;;;;;4.68;2.80;;;;;;;;;;5074952;28;20072;-62
2023/05/10 10:18:05;;;;;;;4.20;3.05;;;;;;;;;;5074949;28;20102;-62
2023/05/10 10:20:34;;;;;;;4.22;3.78;;;;;;;;;;5075142;28;20060;-62
2023/05/10 10:23:01;;;;;;;6.40;4.30;;;;;;;;;;5057254;28;20501;-62
2023/05/10 10:25:29;;;;;;;7.32;5.07;;;;;;;;;;5074873;28;20044;-62
2023/05/10 10:28:03;;;;;;;10.38;7.40;;;;;;;;;;5057151;28;20044;-62
2023/05/10 10:30:31;;;;;;;8.30;3.50;;;;;;;;;;5075036;28;20036;-62
2023/05/10 10:33:14;;;;;;;4.90;2.90;;;;;;;;;;5074697;28;20047;-62
2023/05/10 10:35:55;;;;;;;3.47;3.00;;;;;;;;;;5074567;28;20502;-62
2023/05/10 10:38:22;;;;;;;6.80;3.28;;;;;;;;;;5074941;28;20044;-62
2023/05/10 10:41:02;;;;;;;7.07;3.58;;;;;;;;;;5074685;28;20131;-63
2023/05/10 10:43:30;;;;;;;5.18;2.97;;;;;;;;;;5074171;28;20482;-62
2023/05/10 10:46:17;;;;;;;5.45;2.90;;;;;;;;;;5074395;28;20050;-61
2023/05/10 10:48:49;;;;;;;4.45;2.70;;;;;;;;;;5073050;28;20548;-61
2023/05/10 10:51:16;;;;;;;4.60;2.90;;;;;;;;;;5074226;28;20047;-62
2023/05/10 10:53:44;;;;;;;4.90;3.10;;;;;;;;;;5074679;28;20048;-62
2023/05/10 10:56:18;;;;;;;5.80;2.90;;;;;;;;;;5073138;28;20070;-62
2023/05/10 10:58:53;;;;;;;6.40;2.97;;;;;;;;;;5073058;28;20159;-62
2023/05/10 11:01:21;;;;;;;2.75;2.42;;;;;;;;;;5073019;28;20063;-62
2023/05/10 11:04:15;;;;;;;4.95;2.60;;;;;;;;;;5073815;28;20045;-62
2023/05/10 11:06:42;;;;;;;3.40;2.40;;;;;;;;;;5073994;28;20054;-62
2023/05/10 11:09:13;;;;;;;3.47;2.30;;;;;;;;;;5074127;28;20036;-62
2023/05/10 11:11:52;;;;;;;3.70;2.38;;;;;;;;;;5074032;28;20461;-62
2023/05/10 11:14:22;;;;;;;4.00;2.70;;;;;;;;;;5073770;28;20048;-61
2023/05/10 11:16:50;;;;;;;5.38;2.50;;;;;;;;;;5073610;28;20044;-62
2023/05/10 11:19:17;;;;;;;5.15;2.33;;;;;;;;;;5073640;28;20533;-63
2023/05/10 11:21:49;;;;;;;3.17;2.15;;;;;;;;;;5073590;28;20495;-63
2023/05/10 11:24:21;;;;;;;4.28;2.28;;;;;;;;;;5073424;28;20076;-62
2023/05/10 11:26:52;;;;;;;3.15;2.15;;;;;;;;;;5073480;28;20407;-63
2023/05/10 11:29:20;;;;;;;3.35;2.30;;;;;;;;;;5072249;28;20135;-62
2023/05/10 11:31:48;;;;;;;5.35;2.78;;;;;;;;;;5073551;28;20044;-62
2023/05/10 11:34:25;;;;;;;3.63;2.28;;;;;;;;;;5072035;28;20072;-63
2023/05/10 11:36:53;;;;;;;2.65;2.33;;;;;;;;;;5073640;28;20398;-62
2023/05/10 11:39:21;;;;;;;4.38;2.33;;;;;;;;;;5073264;28;20098;-62
2023/05/10 11:41:49;;;;;;;3.60;2.50;;;;;;;;;;5073560;28;20498;-62
2023/05/10 11:44:17;;;;;;;4.00;2.30;;;;;;;;;;5073908;28;20082;-62
2023/05/10 11:46:44;;;;;;;5.32;2.67;;;;;;;;;;5071827;28;20078;-62
2023/05/10 11:49:13;;;;;;;4.07;2.45;;;;;;;;;;5073207;28;20032;-62
2023/05/10 11:51:42;;;;;;;4.30;2.35;;;;;;;;;;5073148;28;20044;-62
2023/05/10 11:54:11;;;;;;;4.10;2.10;;;;;;;;;;5054946;28;20068;-63
2023/05/10 11:56:39;;;;;;;4.88;2.30;;;;;;;;;;5071469;28;20037;-62
2023/05/10 11:59:07;;;;;;;2.60;2.05;;;;;;;;;;5073078;28;20044;-62
2023/05/10 12:01:35;;;;;;;4.05;2.50;;;;;;;;;;5073048;28;20074;-63
2023/05/10 12:04:03;;;;;;;3.10;2.30;;;;;;;;;;5072932;28;20037;-62
2023/05/10 12:06:32;;;;;;;3.13;2.38;;;;;;;;;;5073030;28;20044;-62
2023/05/10 12:09:00;;;;;;;4.70;3.70;;;;;;;;;;5073026;28;20101;-63
2023/05/10 12:11:28;;;;;;;4.05;2.70;;;;;;;;;;5072744;28;20068;-63
2023/05/10 12:13:56;;;;;;;3.33;2.13;;;;;;;;;;5072658;28;20040;-62
2023/05/10 12:16:25;;;;;;;8.00;3.10;;;;;;;;;;5072832;28;20529;-62
2023/05/10 12:18:54;;;;;;;4.53;2.45;;;;;;;;;;5072744;28;20521;-62
2023/05/10 12:21:22;;;;;;;3.58;2.08;;;;;;;;;;5072770;28;20584;-63
2023/05/10 12:23:51;;;;;;;4.57;3.10;;;;;;;;;;5072605;28;20548;-62
2023/05/10 12:26:19;;;;;;;6.35;2.67;;;;;;;;;;5072616;28;20106;-62
2023/05/10 12:28:47;;;;;;;3.20;2.10;;;;;;;;;;5072608;28;20044;-62
2023/05/10 12:31:14;;;;;;;3.45;2.25;;;;;;;;;;5072619;28;20118;-62
2023/05/10 12:33:43;;;;;;;3.17;2.33;;;;;;;;;;5055040;28;20048;-62
2023/05/10 12:36:12;;;;;;;4.63;2.13;;;;;;;;;;5072533;28;20548;-62
2023/05/10 12:38:42;;;;;;;4.20;2.10;;;;;;;;;;5072550;28;20032;-62
2023/05/10 12:41:11;;;;;;;3.65;1.90;;;;;;;;;;5072415;28;20068;-62
2023/05/10 12:43:40;;;;;;;2.03;1.70;;;;;;;;;;5072344;28;20564;-62
2023/05/10 12:46:12;;;;;;;2.10;1.90;;;;;;;;;;5072409;28;20036;-62
2023/05/10 12:48:40;;;;;;;2.92;2.17;;;;;;;;;;5072509;28;20075;-62
2023/05/10 12:51:09;;;;;;;2.28;1.90;;;;;;;;;;5074701;28;20116;-62
2023/05/10 12:53:36;;;;;;;2.30;2.03;;;;;;;;;;5092700;28;20050;-62
2023/05/10 12:56:04;;;;;;;4.15;2.08;;;;;;;;;;5092363;28;20432;-63
2023/05/10 12:58:32;;;;;;;4.70;2.03;;;;;;;;;;5092337;28;20413;-63
2023/05/10 13:01:03;;;;;;;2.72;1.80;;;;;;;;;;5092317;28;20067;-63
2023/05/10 13:03:31;;;;;;;3.55;2.13;;;;;;;;;;5074505;28;20040;-63
2023/05/10 13:05:59;;;;;;;3.22;1.92;;;;;;;;;;5092353;28;20405;-63
2023/05/10 13:08:26;;;;;;;3.60;2.50;;;;;;;;;;5093983;28;20393;-63
2023/05/10 13:10:54;;;;;;;3.42;2.30;;;;;;;;;;5095942;28;20044;-63
2023/05/10 13:13:21;;;;;;;5.20;2.10;;;;;;;;;;5096167;28;20047;-63
2023/05/10 13:15:49;;;;;;;2.88;2.10;;;;;;;;;;5075812;28;20066;-63
2023/05/10 13:18:16;;;;;;;2.78;1.92;;;;;;;;;;5095644;28;20127;-63
2023/05/10 13:20:44;;;;;;;4.38;1.83;;;;;;;;;;5095374;28;20067;-63
2023/05/10 13:23:11;;;;;;;2.20;2.00;;;;;;;;;;5080431;28;20032;-61
2023/05/10 13:25:39;;;;;;;4.75;2.13;;;;;;;;;;5080980;28;20067;-62
2023/05/10 13:28:06;;;;;;;3.80;2.10;;;;;;;;;;5081957;28;20051;-62
2023/05/10 13:30:34;;;;;;;5.18;2.30;;;;;;;;;;5077606;28;20044;-61
2023/05/10 13:33:01;;;;;;;4.55;2.45;;;;;;;;;;5079704;28;20044;-62
2023/05/10 13:35:29;;;;;;;5.32;2.17;;;;;;;;;;5077224;28;20040;-61
2023/05/10 13:37:57;;;;;;;5.35;2.00;;;;;;;;;;5076788;28;20498;-61
2023/05/10 13:40:25;;;;;;;3.65;2.20;;;;;;;;;;5057776;28;20036;-61
2023/05/10 13:42:52;;;;;;;3.78;2.00;;;;;;;;;;5074206;28;20118;-62
2023/05/10 13:45:20;;;;;;;4.72;2.38;;;;;;;;;;5073313;28;20048;-62
2023/05/10 13:47:48;;;;;;;4.25;2.40;;;;;;;;;;5056822;28;20032;-62
2023/05/10 13:50:16;;;;;;;2.78;1.95;;;;;;;;;;5074368;28;20047;-63
2023/05/10 13:52:43;;;;;;;4.28;2.25;;;;;;;;;;5089981;28;20054;-62
2023/05/10 13:55:12;;;;;;;3.53;2.15;;;;;;;;;;5095002;28;20113;-63
2023/05/10 13:57:40;;;;;;;5.53;1.80;;;;;;;;;;5094884;28;20695;-62
2023/05/10 14:00:08;;;;;;;2.92;1.80;;;;;;;;;;5095003;28;20078;-62
2023/05/10 14:02:35;;;;;;;5.40;1.80;;;;;;;;;;5094855;28;20047;-63
2023/05/10 14:05:03;;;;;;;2.22;1.85;;;;;;;;;;5094655;28;20123;-63
2023/05/10 14:07:31;;;;;;;3.42;2.00;;;;;;;;;;5095200;28;20052;-63
2023/05/10 14:09:58;;;;;;;3.17;1.80;;;;;;;;;;5094878;28;20127;-62
2023/05/10 14:12:26;;;;;;;4.10;2.10;;;;;;;;;;5095357;28;20036;-63
2023/05/10 14:14:53;;;;;;;2.20;2.00;;;;;;;;;;5094544;28;20043;-63
2023/05/10 14:17:21;;;;;;;3.92;2.20;;;;;;;;;;5094628;28;20058;-63
2023/05/10 14:19:49;;;;;;;2.25;1.90;;;;;;;;;;5094217;28;20044;-63
2023/05/10 14:22:16;;;;;;;3.08;1.80;;;;;;;;;;5094587;28;20032;-63
2023/05/10 14:24:46;;;;;;;2.60;1.70;;;;;;;;;;5076881;28;20032;-63
2023/05/10 14:27:14;;;;;;;2.42;1.92;;;;;;;;;;5094364;28;20074;-63
2023/05/10 14:29:42;;;;;;;4.90;2.00;;;;;;;;;;5094337;28;20043;-63
2023/05/10 14:32:10;;;;;;;4.63;2.00;;;;;;;;;;5094266;28;20058;-63
2023/05/10 14:34:37;;;;;;;4.20;1.98;;;;;;;;;;5094336;28;20044;-64
2023/05/10 14:37:05;;;;;;;2.03;1.83;;;;;;;;;;5094554;28;20458;-63
2023/05/10 14:39:33;;;;;;;4.35;2.20;;;;;;;;;;5094441;28;20482;-64